createdAt,value
2022-07-27T00:08:57.574Z,57.0
2022-07-27T00:22:57.611Z,59.0
2022-07-27T00:36:57.617Z,61.0
2022-07-27T00:50:57.617Z,62.0
2022-07-27T01:04:57.623Z,63.0
2022-07-27T01:18:57.642Z,65.0
2022-07-27T01:32:57.712Z,67.0
2022-07-27T01:46:57.686Z,69.0
2022-07-27T02:00:57.957Z,71.0
2022-07-27T02:14:58.001Z,72.0
2022-07-27T02:28:58.006Z,73.0
2022-07-27T02:42:58.030Z,72.0
2022-07-27T02:56:57.998Z,70.0
2022-07-27T03:10:58.002Z,68.0
2022-07-27T03:24:58.090Z,69.0
2022-07-27T03:39:00.726Z,71.0
2022-07-27T03:52:58.292Z,72.0
2022-07-27T04:07:58.298Z,75.0
2022-07-27T04:22:58.307Z,74.0
2022-07-27T04:37:59.773Z,75.0
2022-07-27T04:52:58.318Z,74.0
2022-07-27T05:07:58.355Z,75.0
2022-07-27T05:22:58.336Z,76.0
2022-07-27T05:38:58.314Z,73.0
2022-07-27T05:53:58.316Z,69.0
2022-07-27T06:08:58.346Z,69.0
2022-07-27T06:23:58.360Z,67.0
2022-07-27T06:38:58.374Z,66.0
2022-07-27T06:53:58.489Z,65.0
2022-07-27T07:08:58.561Z,60.0
2022-07-27T07:23:58.591Z,58.0
2022-07-27T07:38:58.564Z,55.0
2022-07-27T07:53:58.565Z,48.0
2022-07-27T08:08:58.581Z,47.0
2022-07-27T08:23:58.855Z,47.0
2022-07-27T08:38:58.854Z,46.0
2022-07-27T08:53:58.799Z,47.0
2022-07-27T09:08:58.832Z,45.0
2022-07-27T09:24:58.825Z,48.0
2022-07-27T09:39:58.835Z,47.0
2022-07-27T09:55:59.263Z,44.0
2022-07-27T10:10:58.864Z,45.0
2022-07-27T10:25:58.940Z,44.0
2022-07-27T10:40:58.982Z,45.0
2022-07-27T10:54:12.095Z,44.0
2022-07-27T11:10:02.811Z,42.0
2022-07-27T11:24:02.729Z,39.0
2022-07-27T11:39:02.898Z,40.0
2022-07-27T11:54:03.387Z,38.0
2022-07-27T12:10:03.675Z,38.0
2022-07-27T12:25:03.757Z,37.0
2022-07-27T12:41:03.915Z,37.0
2022-07-27T12:56:03.946Z,37.0
2022-07-27T13:11:04.006Z,37.0
2022-07-27T13:26:04.082Z,37.0
2022-07-27T13:41:04.150Z,37.0
2022-07-27T13:56:04.250Z,37.0
2022-07-27T14:11:04.523Z,36.0
2022-07-27T14:26:04.325Z,38.0
2022-07-27T14:41:04.306Z,37.0
2022-07-27T14:56:04.313Z,35.0
2022-07-27T15:11:04.424Z,35.0
2022-07-27T15:26:04.398Z,37.0
2022-07-27T15:41:04.369Z,38.0
2022-07-27T15:56:04.376Z,40.0
2022-07-27T16:03:48.435Z,38.0
2022-07-27T16:18:48.297Z,37.0
2022-07-27T16:33:48.205Z,38.0
2022-07-27T16:48:48.206Z,37.0
2022-07-27T17:03:48.183Z,39.0
2022-07-27T17:18:48.270Z,39.0
2022-07-27T17:34:48.190Z,41.0
2022-07-27T17:49:48.199Z,44.0
2022-07-27T18:04:48.546Z,51.0
2022-07-27T18:19:48.722Z,53.0
2022-07-27T18:34:48.713Z,56.0
2022-07-27T18:52:00.568Z,59.0
2022-07-27T19:01:04.762Z,59.0
2022-07-27T19:16:05.752Z,59.0
2022-07-27T19:30:05.476Z,57.0
2022-07-27T19:44:05.722Z,60.0
2022-07-27T19:58:05.713Z,59.0
2022-07-27T20:12:06.050Z,57.0
2022-07-27T20:26:06.203Z,56.0
2022-07-27T20:40:06.043Z,56.0
2022-07-27T20:54:06.618Z,55.0
2022-07-27T21:08:06.676Z,55.0
2022-07-27T21:22:06.252Z,54.0
2022-07-27T21:36:06.268Z,55.0
2022-07-27T21:50:06.508Z,54.0
2022-07-27T22:04:06.499Z,54.0
2022-07-27T22:18:06.443Z,64.0
2022-07-27T22:32:06.483Z,73.0
2022-07-27T22:46:06.515Z,73.0
2022-07-27T23:00:06.439Z,77.0
2022-07-27T23:14:06.443Z,75.0
2022-07-27T23:28:06.595Z,67.0
2022-07-27T23:42:06.602Z,63.0
2022-07-27T23:56:06.601Z,65.0
